createdAt,value
2018-03-19T00:02:26.014Z,-1.12
2018-03-19T00:04:55.024Z,-1.17
2018-03-19T00:07:24.114Z,-1.17
2018-03-19T00:09:54.158Z,-1.27
2018-03-19T00:12:23.180Z,-1.18
2018-03-19T00:14:52.604Z,-1.08
2018-03-19T00:17:21.567Z,-0.91
2018-03-19T00:19:50.584Z,-1.02
2018-03-19T00:22:19.711Z,-0.90
2018-03-19T00:24:48.887Z,-1.14
2018-03-19T00:27:17.873Z,-1.09
2018-03-19T00:29:49.214Z,-1.19
2018-03-19T00:32:18.958Z,-1.15
2018-03-19T00:34:47.969Z,-1.16
2018-03-19T00:37:17.084Z,-1.24
2018-03-19T00:39:46.064Z,-1.16
2018-03-19T00:42:15.125Z,-0.97
2018-03-19T00:44:44.167Z,-1.10
2018-03-19T00:47:13.675Z,-1.08
2018-03-19T00:49:42.746Z,-0.89
2018-03-19T00:52:11.803Z,-0.92
2018-03-19T00:54:40.861Z,-1.08
2018-03-19T00:57:09.981Z,-1.20
2018-03-19T00:59:39.139Z,-1.00
2018-03-19T01:02:08.354Z,-0.99
2018-03-19T01:04:37.368Z,-0.96
2018-03-19T01:07:06.432Z,-0.90
2018-03-19T01:09:35.525Z,-0.92
2018-03-19T01:12:04.704Z,-0.90
2018-03-19T01:14:33.808Z,-0.91
2018-03-19T01:17:03.116Z,-1.00
2018-03-19T01:19:32.186Z,-1.07
2018-03-19T01:22:01.264Z,-1.07
2018-03-19T01:24:30.326Z,-1.00
2018-03-19T01:27:00.688Z,-0.99
2018-03-19T01:29:29.922Z,-0.94
2018-03-19T01:31:59.016Z,-0.98
2018-03-19T01:34:28.162Z,-1.08
2018-03-19T01:36:57.127Z,-0.98
2018-03-19T01:39:26.152Z,-1.00
2018-03-19T01:41:55.271Z,-0.97
2018-03-19T01:44:24.475Z,-1.04
2018-03-19T01:46:53.563Z,-1.12
2018-03-19T01:49:22.640Z,-1.15
2018-03-19T01:51:51.698Z,-1.19
2018-03-19T01:54:20.730Z,-1.18
2018-03-19T01:56:49.886Z,-1.22
2018-03-19T01:59:18.894Z,-1.16
2018-03-19T02:01:48.850Z,-1.22
2018-03-19T02:04:18.114Z,-1.24
2018-03-19T02:06:47.914Z,-1.26
2018-03-19T02:09:16.994Z,-1.33
2018-03-19T02:11:46.068Z,-1.24
2018-03-19T02:14:15.216Z,-1.20
2018-03-19T02:16:44.316Z,-1.25
2018-03-19T02:19:13.416Z,-1.35
2018-03-19T02:21:42.580Z,-1.33
2018-03-19T02:24:21.145Z,-1.33
2018-03-19T02:26:50.378Z,-1.17
2018-03-19T02:29:19.538Z,-1.20
2018-03-19T02:31:49.443Z,-1.29
2018-03-19T02:34:19.188Z,-1.34
2018-03-19T02:36:48.413Z,-1.31
2018-03-19T02:39:17.637Z,-1.26
2018-03-19T02:41:46.844Z,-1.23
2018-03-19T02:44:27.836Z,-1.24
2018-03-19T02:46:57.319Z,-1.25
2018-03-19T02:49:26.348Z,-1.23
2018-03-19T02:51:55.479Z,-1.17
2018-03-19T02:54:24.501Z,-1.21
2018-03-19T02:56:53.609Z,-1.14
2018-03-19T02:59:22.663Z,-1.23
2018-03-19T03:01:51.961Z,-1.23
2018-03-19T03:04:21.065Z,-1.28
2018-03-19T03:06:50.159Z,-1.14
2018-03-19T03:09:19.391Z,-1.16
2018-03-19T03:11:49.460Z,-1.23
2018-03-19T03:14:18.679Z,-1.23
2018-03-19T03:16:47.759Z,-1.31
2018-03-19T03:19:16.905Z,-1.27
2018-03-19T03:21:46.009Z,-1.20
2018-03-19T03:24:15.059Z,-1.21
2018-03-19T03:26:44.750Z,-1.20
2018-03-19T03:29:13.850Z,-1.21
2018-03-19T03:31:43.165Z,-1.23
2018-03-19T03:34:12.246Z,-1.31
2018-03-19T03:36:42.419Z,-1.35
2018-03-19T03:39:11.714Z,-1.32
2018-03-19T03:41:40.810Z,-1.32
2018-03-19T03:44:09.886Z,-1.36
2018-03-19T03:46:39.003Z,-1.32
2018-03-19T03:52:00.491Z,-1.28
2018-03-19T03:54:29.686Z,-1.32
2018-03-19T03:56:58.680Z,-1.27
2018-03-19T03:59:27.894Z,-1.26
2018-03-19T04:01:56.942Z,-1.37
2018-03-19T04:04:25.973Z,-1.37
2018-03-19T04:06:55.647Z,-1.42
2018-03-19T04:09:24.648Z,-1.46
2018-03-19T04:11:53.754Z,-1.40
2018-03-19T04:14:22.808Z,-1.38
2018-03-19T04:16:51.883Z,-1.41
2018-03-19T04:19:20.939Z,-1.42
2018-03-19T04:21:50.127Z,-1.43
2018-03-19T04:24:19.159Z,-1.49
2018-03-19T04:26:48.380Z,-1.47
2018-03-19T04:29:17.461Z,-1.44
2018-03-19T04:31:46.689Z,-1.37
2018-03-19T04:34:15.709Z,-1.36
2018-03-19T04:36:44.701Z,-1.30
2018-03-19T04:39:13.725Z,-1.29
2018-03-19T04:41:42.725Z,-1.30
2018-03-19T04:44:19.264Z,-1.34
2018-03-19T04:46:48.414Z,-1.33
2018-03-19T04:49:17.433Z,-1.37
2018-03-19T04:51:46.411Z,-1.35
2018-03-19T04:54:15.850Z,-1.27
2018-03-19T04:56:45.245Z,-1.31
2018-03-19T04:59:14.355Z,-1.38
2018-03-19T05:01:43.449Z,-1.39
2018-03-19T05:04:12.558Z,-1.33
2018-03-19T05:06:41.731Z,-1.33
2018-03-19T05:09:19.766Z,-1.29
2018-03-19T05:11:50.212Z,-1.40
2018-03-19T05:14:19.354Z,-1.33
2018-03-19T05:16:48.655Z,-1.26
2018-03-19T05:19:18.175Z,-1.31
2018-03-19T05:21:47.202Z,-1.27
2018-03-19T05:24:16.194Z,-1.38
2018-03-19T05:26:45.270Z,-1.27
2018-03-19T05:29:19.788Z,-1.37
2018-03-19T05:31:49.966Z,-1.48
2018-03-19T05:34:19.760Z,-1.57
2018-03-19T05:36:49.261Z,-1.54
2018-03-19T05:39:18.897Z,-1.53
2018-03-19T05:41:48.127Z,-1.38
2018-03-19T05:44:18.127Z,-1.44
2018-03-19T05:46:47.201Z,-1.37
2018-03-19T05:49:17.340Z,-1.48
2018-03-19T05:51:46.522Z,-1.49
2018-03-19T05:54:15.627Z,-1.41
2018-03-19T05:56:52.450Z,-1.44
2018-03-19T05:59:21.491Z,-1.37
2018-03-19T06:01:50.604Z,-1.36
2018-03-19T06:04:19.599Z,-1.33
2018-03-19T06:06:48.713Z,-1.34
2018-03-19T06:09:17.892Z,-1.36
2018-03-19T06:11:49.331Z,-1.33
2018-03-19T06:14:18.373Z,-1.30
2018-03-19T06:16:47.457Z,-1.35
2018-03-19T06:19:16.616Z,-1.35
2018-03-19T06:21:45.645Z,-1.36
2018-03-19T06:24:14.956Z,-1.24
2018-03-19T06:26:44.042Z,-1.17
2018-03-19T06:29:15.327Z,-1.18
2018-03-19T06:31:44.440Z,-1.02
2018-03-19T06:34:13.535Z,-1.08
2018-03-19T06:36:42.838Z,-1.15
2018-03-19T06:39:16.926Z,-1.10
2018-03-19T06:41:46.019Z,-0.94
2018-03-19T06:44:15.039Z,-0.88
2018-03-19T06:46:44.318Z,-0.73
2018-03-19T06:49:14.500Z,-0.81
2018-03-19T06:51:43.643Z,-0.76
2018-03-19T06:54:12.771Z,-0.72
2018-03-19T06:56:43.173Z,-0.57
2018-03-19T06:59:12.251Z,-0.48
2018-03-19T07:01:41.212Z,-0.55
2018-03-19T07:04:11.470Z,-0.47
2018-03-19T07:06:41.324Z,-0.33
2018-03-19T07:09:10.445Z,-0.36
2018-03-19T07:11:39.643Z,-0.22
2018-03-19T07:14:08.938Z,-0.36
2018-03-19T07:16:37.963Z,-0.28
2018-03-19T07:19:07.054Z,-0.39
2018-03-19T07:21:36.441Z,-0.40
2018-03-19T07:24:05.618Z,-0.26
2018-03-19T07:26:34.738Z,-0.37
2018-03-19T07:29:03.813Z,-0.30
2018-03-19T07:31:33.149Z,-0.26
2018-03-19T07:34:02.135Z,-0.20
2018-03-19T07:36:31.203Z,-0.36
2018-03-19T07:39:00.396Z,-0.08
2018-03-19T07:41:37.396Z,0.10
2018-03-19T07:44:06.488Z,-0.08
2018-03-19T07:46:35.535Z,0.12
2018-03-19T07:49:10.459Z,0.07
2018-03-19T07:51:39.541Z,0.09
2018-03-19T07:54:08.551Z,0.38
2018-03-19T07:56:37.689Z,0.29
2018-03-19T07:59:09.109Z,0.27
2018-03-19T08:01:38.085Z,0.45
2018-03-19T08:04:07.140Z,0.73
2018-03-19T08:06:36.340Z,0.75
2018-03-19T08:09:05.633Z,0.92
2018-03-19T08:11:34.878Z,1.03
2018-03-19T08:14:03.966Z,0.90
2018-03-19T08:16:33.017Z,0.75
2018-03-19T08:19:02.018Z,0.94
2018-03-19T08:21:31.306Z,0.79
2018-03-19T08:24:00.404Z,0.70
2018-03-19T08:26:29.499Z,0.85
2018-03-19T08:28:58.844Z,0.84
2018-03-19T08:31:27.779Z,1.31
2018-03-19T08:33:56.813Z,1.14
2018-03-19T08:36:25.796Z,1.11
2018-03-19T08:38:57.137Z,0.98
2018-03-19T08:41:26.368Z,0.83
2018-03-19T08:43:55.424Z,1.05
2018-03-19T08:46:24.475Z,1.33
2018-03-19T08:48:53.860Z,1.05
2018-03-19T08:51:23.045Z,1.03
2018-03-19T08:53:52.216Z,1.30
2018-03-19T08:56:25.184Z,1.40
2018-03-19T08:58:54.650Z,1.03
2018-03-19T09:01:23.724Z,0.91
2018-03-19T09:03:52.899Z,1.10
2018-03-19T09:06:22.041Z,0.92
2018-03-19T09:08:51.025Z,0.98
2018-03-19T09:11:20.628Z,0.74
2018-03-19T09:13:49.695Z,1.04
2018-03-19T09:16:18.918Z,1.44
2018-03-19T09:18:52.815Z,1.10
2018-03-19T09:21:21.871Z,1.09
2018-03-19T09:23:51.230Z,1.32
2018-03-19T09:26:20.304Z,1.55
2018-03-19T09:28:50.769Z,1.36
2018-03-19T09:31:19.844Z,1.23
2018-03-19T09:33:49.724Z,1.10
2018-03-19T09:36:19.364Z,1.18
2018-03-19T09:38:48.494Z,1.58
2018-03-19T09:41:17.611Z,1.60
2018-03-19T09:43:48.072Z,1.55
2018-03-19T09:46:17.227Z,1.38
2018-03-19T09:48:47.014Z,1.12
2018-03-19T09:51:20.773Z,1.15
2018-03-19T09:53:49.889Z,1.50
2018-03-19T09:56:18.961Z,1.32
2018-03-19T09:58:48.097Z,1.43
2018-03-19T10:01:17.670Z,1.29
2018-03-19T10:03:49.020Z,1.42
2018-03-19T10:06:18.030Z,1.41
2018-03-19T10:08:47.007Z,1.42
2018-03-19T10:11:16.046Z,1.46
2018-03-19T10:13:45.413Z,1.54
2018-03-19T10:16:14.392Z,1.67
2018-03-19T10:18:44.644Z,1.85
2018-03-19T10:21:15.913Z,1.92
2018-03-19T10:23:45.044Z,1.93
2018-03-19T10:26:14.150Z,1.74
2018-03-19T10:28:44.574Z,1.54
2018-03-19T10:31:13.991Z,1.71
2018-03-19T10:33:44.249Z,1.29
2018-03-19T10:36:13.520Z,1.19
2018-03-19T10:38:42.522Z,1.47
2018-03-19T10:41:11.579Z,1.26
2018-03-19T10:43:41.911Z,1.76
2018-03-19T10:46:11.111Z,1.57
2018-03-19T10:48:42.051Z,1.31
2018-03-19T10:51:11.037Z,1.57
2018-03-19T10:53:41.404Z,1.88
2018-03-19T10:56:10.472Z,1.74
2018-03-19T10:58:39.670Z,1.97
2018-03-19T11:01:13.521Z,1.81
2018-03-19T11:03:45.766Z,1.78
2018-03-19T11:06:18.867Z,1.62
2018-03-19T11:08:48.016Z,1.21
2018-03-19T11:11:17.047Z,1.33
2018-03-19T11:13:50.351Z,1.46
2018-03-19T11:16:19.461Z,1.40
2018-03-19T11:18:48.776Z,1.39
2018-03-19T11:21:18.241Z,1.64
2018-03-19T11:23:47.466Z,1.67
2018-03-19T11:26:16.868Z,1.39
2018-03-19T11:28:46.226Z,1.38
2018-03-19T11:31:15.358Z,1.77
2018-03-19T11:33:44.384Z,1.57
2018-03-19T11:36:13.736Z,1.58
2018-03-19T11:38:42.705Z,1.13
2018-03-19T11:41:11.937Z,1.34
2018-03-19T11:43:41.320Z,1.72
2018-03-19T11:46:10.368Z,1.60
2018-03-19T11:48:39.448Z,1.72
2018-03-19T11:51:08.956Z,1.84
2018-03-19T11:53:38.102Z,2.30
2018-03-19T11:56:07.323Z,1.43
2018-03-19T11:58:36.735Z,1.72
2018-03-19T12:01:06.001Z,1.82
2018-03-19T12:03:35.052Z,1.84
2018-03-19T12:06:04.506Z,1.30
2018-03-19T12:08:33.492Z,1.32
2018-03-19T12:11:02.649Z,1.58
2018-03-19T12:13:32.054Z,1.46
2018-03-19T12:16:01.055Z,1.53
2018-03-19T12:18:30.332Z,1.45
2018-03-19T12:21:01.149Z,1.51
2018-03-19T12:23:30.247Z,1.74
2018-03-19T12:26:00.050Z,1.62
2018-03-19T12:28:30.349Z,1.37
2018-03-19T12:30:59.588Z,1.48
2018-03-19T12:33:30.030Z,1.21
2018-03-19T12:36:00.775Z,1.19
2018-03-19T12:38:29.924Z,1.31
2018-03-19T12:40:59.038Z,1.31
2018-03-19T12:43:28.424Z,1.49
2018-03-19T12:45:57.546Z,1.51
2018-03-19T12:48:26.553Z,1.23
2018-03-19T12:50:56.020Z,1.22
2018-03-19T12:53:25.122Z,1.25
2018-03-19T12:55:54.249Z,1.35
2018-03-19T12:58:23.264Z,1.28
2018-03-19T13:00:52.415Z,1.02
2018-03-19T13:03:21.460Z,1.11
2018-03-19T13:05:50.655Z,1.11
2018-03-19T13:08:19.739Z,1.21
2018-03-19T13:10:48.820Z,1.24
2018-03-19T13:13:18.185Z,1.12
2018-03-19T13:15:47.177Z,0.76
2018-03-19T13:18:16.273Z,0.59
2018-03-19T13:20:46.251Z,0.96
2018-03-19T13:23:15.369Z,1.26
2018-03-19T13:25:44.480Z,1.39
2018-03-19T13:28:13.551Z,1.60
2018-03-19T13:30:42.625Z,1.80
2018-03-19T13:33:13.983Z,1.73
2018-03-19T13:35:42.965Z,1.78
2018-03-19T13:38:12.064Z,1.67
2018-03-19T13:40:41.281Z,1.76
2018-03-19T13:43:10.457Z,1.83
2018-03-19T13:45:39.540Z,2.07
2018-03-19T13:48:08.790Z,2.14
2018-03-19T13:50:37.879Z,2.25
2018-03-19T13:53:06.972Z,1.87
2018-03-19T13:55:36.001Z,1.91
2018-03-19T13:58:05.011Z,1.85
2018-03-19T14:00:37.732Z,2.00
2018-03-19T14:03:07.055Z,1.99
2018-03-19T14:05:37.121Z,1.76
2018-03-19T14:08:06.134Z,1.76
2018-03-19T14:10:35.310Z,1.81
2018-03-19T14:13:06.171Z,1.77
2018-03-19T14:15:35.291Z,1.98
2018-03-19T14:18:04.474Z,1.53
2018-03-19T14:20:33.730Z,1.75
2018-03-19T14:23:02.960Z,1.74
2018-03-19T14:25:32.779Z,1.48
2018-03-19T14:28:02.196Z,1.46
2018-03-19T14:30:31.300Z,1.57
2018-03-19T14:33:00.582Z,1.77
2018-03-19T14:35:30.256Z,1.74
2018-03-19T14:37:59.324Z,1.48
2018-03-19T14:40:28.481Z,1.46
2018-03-19T14:42:57.966Z,1.38
2018-03-19T14:45:27.098Z,1.41
2018-03-19T14:47:56.179Z,1.37
2018-03-19T14:50:25.619Z,1.38
2018-03-19T14:52:54.704Z,1.51
2018-03-19T14:55:23.750Z,1.51
2018-03-19T14:57:56.930Z,1.65
2018-03-19T15:00:26.015Z,1.53
2018-03-19T15:02:55.318Z,1.26
2018-03-19T15:05:24.769Z,1.55
2018-03-19T15:07:53.813Z,1.41
2018-03-19T15:10:22.908Z,1.55
2018-03-19T15:12:53.490Z,1.45
2018-03-19T15:15:22.934Z,1.27
2018-03-19T15:17:51.934Z,1.30
2018-03-19T15:20:21.814Z,1.07
2018-03-19T15:22:50.852Z,1.06
2018-03-19T15:25:20.611Z,1.06
2018-03-19T15:27:51.133Z,1.01
2018-03-19T15:30:20.267Z,1.06
2018-03-19T15:32:49.290Z,1.30
2018-03-19T15:35:19.872Z,1.24
2018-03-19T15:37:49.733Z,1.17
2018-03-19T15:40:18.853Z,1.09
2018-03-19T15:42:48.916Z,1.16
2018-03-19T15:45:18.763Z,0.94
2018-03-19T15:47:48.186Z,1.06
2018-03-19T15:50:18.012Z,1.07
2018-03-19T15:52:47.353Z,1.06
2018-03-19T15:55:16.467Z,1.18
2018-03-19T15:57:45.910Z,1.12
2018-03-19T16:00:14.930Z,0.91
2018-03-19T16:02:44.038Z,0.76
2018-03-19T16:05:13.484Z,0.77
2018-03-19T16:07:42.662Z,0.61
2018-03-19T16:10:11.736Z,0.62
2018-03-19T16:12:41.160Z,0.73
2018-03-19T16:15:10.232Z,0.84
2018-03-19T16:17:39.578Z,0.83
2018-03-19T16:20:21.569Z,0.70
2018-03-19T16:22:50.623Z,0.66
2018-03-19T16:25:20.177Z,0.54
2018-03-19T16:27:49.591Z,0.72
2018-03-19T16:30:18.820Z,0.73
2018-03-19T16:32:48.472Z,0.70
2018-03-19T16:35:17.752Z,0.62
2018-03-19T16:37:46.947Z,0.54
2018-03-19T16:40:37.990Z,0.55
2018-03-19T16:43:08.363Z,0.54
2018-03-19T16:45:37.994Z,0.56
2018-03-19T16:48:14.256Z,0.45
2018-03-19T16:50:44.613Z,0.54
2018-03-19T16:53:14.394Z,0.59
2018-03-19T16:55:44.476Z,0.79
2018-03-19T16:58:15.564Z,0.57
2018-03-19T17:00:44.996Z,0.51
2018-03-19T17:05:48.667Z,0.47
2018-03-19T17:08:17.954Z,0.59
2018-03-19T17:10:47.254Z,0.42
2018-03-19T17:13:18.007Z,0.43
2018-03-19T17:15:47.208Z,0.45
2018-03-19T17:18:16.534Z,0.51
2018-03-19T17:20:46.185Z,0.44
2018-03-19T17:23:15.582Z,0.41
2018-03-19T17:25:44.787Z,0.29
2018-03-19T17:28:14.500Z,0.23
2018-03-19T17:30:44.329Z,0.32
2018-03-19T17:33:14.038Z,0.34
2018-03-19T17:35:45.781Z,0.47
2018-03-19T17:38:15.052Z,0.41
2018-03-19T17:40:46.661Z,0.43
2018-03-19T17:43:16.319Z,0.32
2018-03-19T17:45:45.661Z,0.38
2018-03-19T17:48:15.050Z,0.34
2018-03-19T17:50:44.676Z,0.25
2018-03-19T17:53:14.325Z,0.23
2018-03-19T17:55:43.887Z,0.28
2018-03-19T17:58:13.558Z,0.31
2018-03-19T18:00:43.357Z,0.37
2018-03-19T18:03:13.237Z,0.20
2018-03-19T18:05:44.960Z,0.30
2018-03-19T18:08:14.090Z,0.23
2018-03-19T18:10:43.549Z,0.26
2018-03-19T18:13:14.338Z,0.17
2018-03-19T18:15:44.818Z,0.18
2018-03-19T18:18:14.006Z,0.17
2018-03-19T18:20:44.766Z,0.18
2018-03-19T18:23:14.416Z,0.18
2018-03-19T18:25:44.783Z,0.29
2018-03-19T18:28:16.560Z,0.18
2018-03-19T18:30:46.123Z,0.14
2018-03-19T18:33:16.288Z,0.19
2018-03-19T18:35:53.718Z,0.15
2018-03-19T18:38:22.929Z,0.23
2018-03-19T18:40:54.635Z,0.24
2018-03-19T18:43:24.229Z,0.12
2018-03-19T18:45:53.578Z,0.19
2018-03-19T18:48:27.023Z,0.15
2018-03-19T18:50:56.650Z,0.21
2018-03-19T18:53:26.045Z,0.13
2018-03-19T18:55:55.086Z,0.12
2018-03-19T18:58:24.570Z,0.11
2018-03-19T19:00:55.712Z,0.05
2018-03-19T19:03:25.089Z,-0.01
2018-03-19T19:05:54.782Z,-0.09
2018-03-19T19:08:24.140Z,-0.02
2018-03-19T19:10:53.271Z,-0.04
2018-03-19T19:13:26.894Z,-0.11
2018-03-19T19:15:57.457Z,-0.12
2018-03-19T19:18:41.262Z,-0.11
2018-03-19T19:21:10.956Z,-0.14
2018-03-19T19:23:40.851Z,-0.14
2018-03-19T19:26:10.303Z,-0.09
2018-03-19T19:28:39.999Z,-0.02
2018-03-19T19:31:09.499Z,0.05
2018-03-19T19:33:38.884Z,-0.04
2018-03-19T19:36:08.530Z,-0.08
2018-03-19T19:38:37.844Z,0.00
2018-03-19T19:41:07.193Z,0.01
2018-03-19T19:43:39.059Z,0.00
2018-03-19T19:46:11.527Z,-0.03
2018-03-19T19:48:40.691Z,-0.08
2018-03-19T19:51:12.697Z,-0.21
2018-03-19T19:53:41.738Z,-0.08
2018-03-19T19:56:11.137Z,0.01
2018-03-19T19:58:41.687Z,-0.05
2018-03-19T20:01:11.973Z,0.01
2018-03-19T20:03:41.059Z,-0.02
2018-03-19T20:06:10.721Z,0.02
2018-03-19T20:08:39.920Z,0.13
2018-03-19T20:11:09.425Z,0.12
2018-03-19T20:13:40.718Z,0.06
2018-03-19T20:16:09.863Z,0.06
2018-03-19T20:18:41.685Z,0.03
2018-03-19T20:21:10.968Z,0.01
2018-03-19T20:23:41.676Z,-0.01
2018-03-19T20:26:10.928Z,-0.12
2018-03-19T20:28:40.175Z,-0.16
2018-03-19T20:31:09.364Z,-0.11
2018-03-19T20:33:43.507Z,-0.11
2018-03-19T20:36:12.728Z,-0.07
2018-03-19T20:38:43.438Z,-0.02
2018-03-19T20:41:13.372Z,-0.09
2018-03-19T20:43:43.313Z,-0.10
2018-03-19T20:46:13.332Z,-0.15
2018-03-19T20:48:43.540Z,-0.07
2018-03-19T20:51:13.084Z,-0.15
2018-03-19T20:53:43.251Z,-0.13
2018-03-19T20:56:14.878Z,-0.15
2018-03-19T20:58:44.118Z,-0.22
2018-03-19T21:01:14.070Z,-0.29
2018-03-19T21:03:43.588Z,-0.17
2018-03-19T21:08:37.980Z,-0.21
2018-03-19T21:11:08.330Z,-0.30
2018-03-19T21:13:38.585Z,-0.22
2018-03-19T21:16:08.608Z,-0.21
2018-03-19T21:18:38.108Z,-0.15
2018-03-19T21:21:07.269Z,-0.27
2018-03-19T21:23:36.632Z,-0.29
2018-03-19T21:26:08.187Z,-0.32
2018-03-19T21:28:41.577Z,-0.34
2018-03-19T21:31:11.429Z,-0.33
2018-03-19T21:33:40.894Z,-0.30
2018-03-19T21:36:10.566Z,-0.27
2018-03-19T21:38:41.842Z,-0.24
2018-03-19T21:41:10.951Z,-0.18
2018-03-19T21:43:40.627Z,-0.03
2018-03-19T21:46:11.235Z,-0.06
2018-03-19T21:48:40.378Z,-0.05
2018-03-19T21:51:11.735Z,-0.03
2018-03-19T21:53:45.857Z,-0.04
2018-03-19T21:56:15.398Z,-0.15
2018-03-19T21:58:46.198Z,-0.12
2018-03-19T22:01:15.430Z,-0.08
2018-03-19T22:03:49.915Z,0.00
2018-03-19T22:06:32.160Z,0.00
2018-03-19T22:09:37.907Z,-0.04
2018-03-19T22:13:36.385Z,0.05
2018-03-19T22:18:08.518Z,0.12
2018-03-19T22:20:41.225Z,0.16
2018-03-19T22:28:26.258Z,0.08
2018-03-19T22:30:57.145Z,0.18
2018-03-19T22:33:29.927Z,0.08
2018-03-19T22:36:00.330Z,0.01
2018-03-19T22:38:30.172Z,0.01
2018-03-19T22:40:59.270Z,-0.02
2018-03-19T22:43:28.858Z,-0.07
2018-03-19T22:45:59.441Z,-0.11
2018-03-19T22:48:31.162Z,-0.08
2018-03-19T22:51:02.504Z,-0.04
2018-03-19T22:53:31.681Z,-0.11
2018-03-19T22:56:03.082Z,-0.03
2018-03-19T22:58:33.154Z,-0.16
2018-03-19T23:01:02.280Z,-0.10
2018-03-19T23:03:31.771Z,-0.21
2018-03-19T23:06:01.016Z,-0.18
2018-03-19T23:08:30.511Z,-0.15
2018-03-19T23:10:59.681Z,-0.19
2018-03-19T23:13:28.763Z,-0.24
2018-03-19T23:15:57.950Z,-0.28
2018-03-19T23:18:28.257Z,-0.36
2018-03-19T23:20:59.624Z,-0.43
2018-03-19T23:23:29.009Z,-0.42
2018-03-19T23:25:58.111Z,-0.48
2018-03-19T23:28:27.087Z,-0.52
2018-03-19T23:30:59.581Z,-0.56
2018-03-19T23:33:28.779Z,-0.48
2018-03-19T23:35:58.030Z,-0.46
2018-03-19T23:38:27.133Z,-0.47
2018-03-19T23:40:56.129Z,-0.57
2018-03-19T23:43:25.721Z,-0.54
2018-03-19T23:45:55.090Z,-0.66
2018-03-19T23:48:31.605Z,-0.78
2018-03-19T23:51:00.939Z,-0.75
2018-03-19T23:53:30.185Z,-0.78
2018-03-19T23:55:59.486Z,-0.88
2018-03-19T23:58:28.604Z,-0.89
